Time;durP1;ratioP1;P1;durP2;ratioP2;P2;SDS_P1;SDS_P2;PMS_P1;PMS_P2;Temp;Humidity;BMP_temperature;BMP_pressure;BME280_temperature;BME280_humidity;BME280_pressure;Samples;Min_cycle;Max_cycle;Signal;HPM_P1;HPM_P2
2022/08/18 00:04:39;;;;;;;15.82;11.13;;;;;;;;;;10118315;29;20496;-96
2022/08/18 00:09:42;;;;;;;14.98;10.88;;;;;;;;;;10111499;29;20421;-96
2022/08/18 00:14:45;;;;;;;15.65;11.18;;;;;;;;;;10111212;29;20441;-96
2022/08/18 00:19:49;;;;;;;14.73;11.27;;;;;;;;;;10113783;29;20412;-96
2022/08/18 00:24:53;;;;;;;14.38;11.10;;;;;;;;;;10115121;29;20427;-96
2022/08/18 00:29:57;;;;;;;14.35;10.98;;;;;;;;;;10113652;29;20973;-96
2022/08/18 00:35:06;;;;;;;15.63;11.23;;;;;;;;;;10116540;29;20479;-96
2022/08/18 00:40:10;;;;;;;15.15;11.70;;;;;;;;;;10108767;29;20490;-96
2022/08/18 00:45:16;;;;;;;16.55;11.98;;;;;;;;;;10108907;29;20506;-96
2022/08/18 00:50:22;;;;;;;16.58;12.00;;;;;;;;;;10117039;29;20434;-96
2022/08/18 00:55:25;;;;;;;19.73;13.03;;;;;;;;;;10109800;29;20903;-96
2022/08/18 01:00:27;;;;;;;17.03;12.77;;;;;;;;;;10109111;29;20419;-96
2022/08/18 01:05:39;;;;;;;18.33;13.93;;;;;;;;;;10114157;29;20497;-96
2022/08/18 01:10:42;;;;;;;20.13;13.87;;;;;;;;;;10109263;29;20421;-96
2022/08/18 01:15:44;;;;;;;14.80;12.20;;;;;;;;;;10111942;29;20418;-96
2022/08/18 01:26:20;;;;;;;14.05;10.65;;;;;;;;;;10104599;29;20509;-96
2022/08/18 01:31:36;;;;;;;12.55;9.45;;;;;;;;;;10106991;29;20656;-96
2022/08/18 01:36:40;;;;;;;11.00;9.00;;;;;;;;;;10110605;29;20483;-96
2022/08/18 01:41:44;;;;;;;14.32;9.38;;;;;;;;;;10109111;29;20429;-96
2022/08/18 01:46:46;;;;;;;14.35;9.15;;;;;;;;;;10107932;29;20434;-96
2022/08/18 01:51:48;;;;;;;12.60;9.20;;;;;;;;;;10111231;29;20479;-96
2022/08/18 01:56:52;;;;;;;13.65;9.38;;;;;;;;;;10110137;29;20423;-96
2022/08/18 02:01:55;;;;;;;11.90;8.02;;;;;;;;;;10113103;29;20429;-96
2022/08/18 02:06:56;;;;;;;9.93;7.07;;;;;;;;;;10109996;29;20432;-96
2022/08/18 02:12:00;;;;;;;10.63;6.45;;;;;;;;;;10105779;29;20904;-96
2022/08/18 02:17:04;;;;;;;8.43;6.68;;;;;;;;;;10113298;29;20429;-96
2022/08/18 02:22:08;;;;;;;6.97;6.28;;;;;;;;;;10107951;29;20419;-96
2022/08/18 02:27:13;;;;;;;9.93;7.17;;;;;;;;;;10107643;29;20791;-96
2022/08/18 02:32:15;;;;;;;9.68;7.13;;;;;;;;;;10103402;29;20426;-96
2022/08/18 02:37:17;;;;;;;9.43;7.60;;;;;;;;;;10113108;29;20417;-96
2022/08/18 02:42:21;;;;;;;11.50;8.20;;;;;;;;;;10113504;29;20486;-96
2022/08/18 02:47:24;;;;;;;14.47;9.60;;;;;;;;;;10116971;29;20438;-96
2022/08/18 02:52:28;;;;;;;18.07;11.80;;;;;;;;;;10116819;29;20443;-96
2022/08/18 02:57:32;;;;;;;16.98;12.18;;;;;;;;;;10109725;29;20425;-96
2022/08/18 03:02:33;;;;;;;19.10;12.30;;;;;;;;;;10119830;29;20575;-96
2022/08/18 03:07:36;;;;;;;14.87;11.33;;;;;;;;;;10117528;29;20453;-96
2022/08/18 03:12:42;;;;;;;19.13;12.30;;;;;;;;;;10108473;29;20502;-96
2022/08/18 03:17:44;;;;;;;16.73;11.15;;;;;;;;;;10112092;29;20973;-96
2022/08/18 03:22:46;;;;;;;15.13;10.38;;;;;;;;;;10115568;29;20417;-96
2022/08/18 03:27:49;;;;;;;16.98;10.93;;;;;;;;;;10111302;29;20779;-96
2022/08/18 03:32:51;;;;;;;16.63;11.87;;;;;;;;;;10117936;29;20819;-96
2022/08/18 03:37:54;;;;;;;18.33;11.73;;;;;;;;;;10116509;29;20431;-96
2022/08/18 03:42:58;;;;;;;14.43;11.73;;;;;;;;;;10108460;29;20798;-96
2022/08/18 03:48:00;;;;;;;18.47;11.60;;;;;;;;;;10114609;29;20949;-96
2022/08/18 03:53:04;;;;;;;16.38;11.52;;;;;;;;;;10121964;23;20423;-89
2022/08/18 03:58:13;;;;;;;19.50;13.38;;;;;;;;;;10076181;29;20425;-89
2022/08/18 04:03:18;;;;;;;20.03;15.23;;;;;;;;;;10073210;29;20436;-89
2022/08/18 04:08:20;;;;;;;25.90;17.42;;;;;;;;;;10077378;29;20424;-88
2022/08/18 04:13:23;;;;;;;25.45;17.13;;;;;;;;;;10076524;29;20514;-90
2022/08/18 04:18:25;;;;;;;20.48;14.30;;;;;;;;;;10076509;29;20428;-92
2022/08/18 04:23:27;;;;;;;8.27;5.57;;;;;;;;;;10073557;29;21145;-90
2022/08/18 04:28:31;;;;;;;6.47;3.85;;;;;;;;;;10070997;29;20518;-90
2022/08/18 04:33:33;;;;;;;4.90;1.88;;;;;;;;;;10068928;29;20429;-90
2022/08/18 04:38:36;;;;;;;3.93;1.53;;;;;;;;;;10055200;29;20500;-88
2022/08/18 04:43:40;;;;;;;2.47;1.10;;;;;;;;;;10084343;29;20441;-88
2022/08/18 04:48:42;;;;;;;3.60;1.50;;;;;;;;;;10106703;29;20429;-88
2022/08/18 04:53:47;;;;;;;2.40;1.50;;;;;;;;;;10071652;29;20504;-89
2022/08/18 04:58:51;;;;;;;3.95;1.40;;;;;;;;;;10073478;29;20540;-89
2022/08/18 05:03:54;;;;;;;4.10;1.60;;;;;;;;;;10072117;29;20799;-88
2022/08/18 05:08:58;;;;;;;3.35;1.88;;;;;;;;;;10073346;29;20497;-89
2022/08/18 05:14:04;;;;;;;5.25;1.70;;;;;;;;;;10072862;29;20507;-89
2022/08/18 05:19:07;;;;;;;5.37;2.10;;;;;;;;;;10067917;29;20500;-89
2022/08/18 05:24:09;;;;;;;3.78;2.47;;;;;;;;;;10070074;29;20921;-89
2022/08/18 05:29:13;;;;;;;4.17;2.30;;;;;;;;;;10071843;29;20519;-89
2022/08/18 05:34:15;;;;;;;3.23;2.20;;;;;;;;;;10066876;29;20450;-89
2022/08/18 05:39:25;;;;;;;4.22;2.28;;;;;;;;;;10070260;29;20883;-89
2022/08/18 05:44:30;;;;;;;5.80;2.60;;;;;;;;;;10070767;29;20441;-89
2022/08/18 05:49:34;;;;;;;6.07;2.60;;;;;;;;;;10070142;29;20454;-89
2022/08/18 06:00:04;;;;;;;5.68;2.63;;;;;;;;;;10070495;29;20444;-88
2022/08/18 06:05:10;;;;;;;5.50;2.78;;;;;;;;;;10073143;29;20791;-88
2022/08/18 06:10:13;;;;;;;6.53;2.92;;;;;;;;;;10065413;29;20493;-88
2022/08/18 06:15:22;;;;;;;6.17;2.90;;;;;;;;;;10073915;29;20507;-89
2022/08/18 06:20:30;;;;;;;4.10;2.88;;;;;;;;;;10076908;29;20427;-89
2022/08/18 06:25:37;;;;;;;7.05;3.10;;;;;;;;;;10078465;29;20618;-89
2022/08/18 06:30:57;;;;;;;5.28;2.80;;;;;;;;;;10077879;29;20420;-89
2022/08/18 06:36:07;;;;;;;4.03;2.90;;;;;;;;;;10074635;29;20494;-89
2022/08/18 06:41:13;;;;;;;4.88;3.10;;;;;;;;;;10078768;29;20430;-89
2022/08/18 06:46:19;;;;;;;5.03;2.78;;;;;;;;;;10082703;29;20471;-88
2022/08/18 06:51:22;;;;;;;6.90;3.20;;;;;;;;;;10077584;29;20781;-89
2022/08/18 06:56:28;;;;;;;6.80;3.33;;;;;;;;;;10077362;29;21047;-89
2022/08/18 07:01:33;;;;;;;6.13;3.13;;;;;;;;;;10075656;29;20429;-89
2022/08/18 07:06:35;;;;;;;6.20;3.30;;;;;;;;;;10074920;29;20509;-89
2022/08/18 07:11:42;;;;;;;4.53;3.00;;;;;;;;;;10072874;29;20463;-89
2022/08/18 07:16:45;;;;;;;4.90;2.90;;;;;;;;;;10070894;29;20488;-89
2022/08/18 07:22:00;;;;;;;3.15;2.00;;;;;;;;;;10071428;29;20890;-89
2022/08/18 07:27:07;;;;;;;4.03;2.20;;;;;;;;;;10075107;29;20641;-89
2022/08/18 07:32:16;;;;;;;4.55;2.08;;;;;;;;;;10074772;29;20971;-89
2022/08/18 07:37:23;;;;;;;3.83;1.80;;;;;;;;;;10071841;29;20888;-89
2022/08/18 07:42:38;;;;;;;4.13;1.53;;;;;;;;;;10075811;29;20437;-89
2022/08/18 07:47:49;;;;;;;5.88;1.60;;;;;;;;;;10075070;29;20444;-89
2022/08/18 07:53:01;;;;;;;3.67;1.63;;;;;;;;;;10072100;29;21003;-89
2022/08/18 07:58:24;;;;;;;2.25;1.10;;;;;;;;;;10070187;29;20420;-89
2022/08/18 08:03:33;;;;;;;4.63;1.45;;;;;;;;;;10071105;29;20422;-89
2022/08/18 08:08:42;;;;;;;3.20;1.35;;;;;;;;;;10073457;29;20459;-89
2022/08/18 08:13:56;;;;;;;5.05;1.60;;;;;;;;;;10068792;29;20495;-89
2022/08/18 08:19:05;;;;;;;4.15;1.60;;;;;;;;;;10073786;29;20449;-89
2022/08/18 08:24:17;;;;;;;6.70;3.72;;;;;;;;;;10077529;29;20510;-89
2022/08/18 08:29:31;;;;;;;6.35;1.90;;;;;;;;;;10067897;29;20835;-89
2022/08/18 08:34:42;;;;;;;4.18;1.75;;;;;;;;;;10072922;29;20461;-89
2022/08/18 08:39:49;;;;;;;6.20;1.50;;;;;;;;;;10069666;29;20512;-89
2022/08/18 08:44:59;;;;;;;4.25;1.35;;;;;;;;;;10072046;29;20520;-89
2022/08/18 08:50:07;;;;;;;4.10;1.58;;;;;;;;;;10072722;29;20452;-89
2022/08/18 08:55:15;;;;;;;4.30;1.40;;;;;;;;;;10074465;29;20449;-90
2022/08/18 09:00:17;;;;;;;3.05;1.10;;;;;;;;;;10073989;29;20506;-89
2022/08/18 09:05:25;;;;;;;1.80;0.80;;;;;;;;;;10092796;29;20407;-89
2022/08/18 09:11:12;;;;;;;3.00;1.00;;;;;;;;;;10104329;29;20419;-88
2022/08/18 09:16:23;;;;;;;2.75;0.82;;;;;;;;;;9997203;29;20506;-89
2022/08/18 09:21:36;;;;;;;6.20;1.30;;;;;;;;;;10072038;29;20930;-90
2022/08/18 09:26:44;;;;;;;7.15;1.20;;;;;;;;;;10074993;29;20528;-90
2022/08/18 09:31:46;;;;;;;3.50;1.00;;;;;;;;;;10068235;29;20461;-90
2022/08/18 09:37:02;;;;;;;3.57;1.20;;;;;;;;;;10071460;29;20440;-90
2022/08/18 09:42:10;;;;;;;4.10;1.20;;;;;;;;;;10071882;29;20462;-90
2022/08/18 09:47:32;;;;;;;2.47;0.95;;;;;;;;;;10071357;29;20439;-90
2022/08/18 09:53:14;;;;;;;2.30;0.93;;;;;;;;;;10076570;29;20503;-89
2022/08/18 09:58:20;;;;;;;3.28;1.08;;;;;;;;;;10072743;29;20870;-90
2022/08/18 10:03:27;;;;;;;1.98;1.25;;;;;;;;;;10078074;29;20960;-90
2022/08/18 10:09:03;;;;;;;2.88;1.40;;;;;;;;;;10077051;29;20997;-90
2022/08/18 10:14:27;;;;;;;3.70;1.33;;;;;;;;;;10080358;29;20987;-90
2022/08/18 10:19:37;;;;;;;4.30;1.63;;;;;;;;;;10076977;29;20454;-90
2022/08/18 10:24:52;;;;;;;5.80;2.43;;;;;;;;;;10080288;29;20491;-90
2022/08/18 10:29:57;;;;;;;11.93;3.28;;;;;;;;;;10080173;29;20515;-92
2022/08/18 10:35:01;;;;;;;8.30;2.63;;;;;;;;;;10079681;29;20428;-91
2022/08/18 10:40:16;;;;;;;6.18;2.88;;;;;;;;;;10076399;29;20439;-90
2022/08/18 10:45:24;;;;;;;4.13;2.43;;;;;;;;;;10078238;29;20537;-90
2022/08/18 10:50:28;;;;;;;7.88;2.50;;;;;;;;;;10077548;29;20858;-90
2022/08/18 10:55:46;;;;;;;7.68;2.58;;;;;;;;;;10080859;29;20945;-90
2022/08/18 11:01:14;;;;;;;5.80;2.83;;;;;;;;;;10073765;29;20874;-90
2022/08/18 11:06:29;;;;;;;5.40;3.03;;;;;;;;;;10069443;29;20438;-90
2022/08/18 11:11:44;;;;;;;9.63;3.55;;;;;;;;;;10077130;29;20423;-91
2022/08/18 11:16:55;;;;;;;5.65;2.90;;;;;;;;;;10076910;29;20425;-89
2022/08/18 11:21:57;;;;;;;4.93;2.72;;;;;;;;;;10076856;29;20520;-89
2022/08/18 11:27:05;;;;;;;4.43;2.28;;;;;;;;;;10076757;29;20520;-89
2022/08/18 11:32:09;;;;;;;4.55;2.22;;;;;;;;;;10075006;29;20422;-90
2022/08/18 11:37:23;;;;;;;3.70;1.70;;;;;;;;;;10075731;29;20448;-89
2022/08/18 11:42:32;;;;;;;4.80;2.08;;;;;;;;;;10071088;29;20588;-88
2022/08/18 11:47:38;;;;;;;3.85;1.92;;;;;;;;;;10074286;29;20450;-88
2022/08/18 11:52:48;;;;;;;3.97;1.65;;;;;;;;;;10072028;29;20442;-89
2022/08/18 11:57:55;;;;;;;2.50;1.90;;;;;;;;;;10070619;29;20866;-89
2022/08/18 12:03:02;;;;;;;4.00;1.73;;;;;;;;;;10073871;29;20452;-89
2022/08/18 12:08:04;;;;;;;3.08;1.80;;;;;;;;;;10075148;29;20525;-89
2022/08/18 12:13:07;;;;;;;2.20;0.90;;;;;;;;;;10075447;29;20991;-89
2022/08/18 12:18:09;;;;;;;2.83;0.70;;;;;;;;;;10070301;29;20852;-89
2022/08/18 12:23:11;;;;;;;3.35;0.70;;;;;;;;;;10074234;29;20502;-89
2022/08/18 12:28:14;;;;;;;2.65;0.52;;;;;;;;;;10071346;29;20791;-89
2022/08/18 12:33:16;;;;;;;3.78;0.98;;;;;;;;;;10069292;29;20483;-89
2022/08/18 12:38:18;;;;;;;2.33;0.70;;;;;;;;;;10072993;29;20495;-89
2022/08/18 12:43:21;;;;;;;2.47;0.60;;;;;;;;;;10075094;29;20501;-89
2022/08/18 12:48:23;;;;;;;5.68;1.00;;;;;;;;;;10072665;29;20556;-89
2022/08/18 12:53:25;;;;;;;7.53;1.48;;;;;;;;;;10071294;29;20426;-89
2022/08/18 12:58:29;;;;;;;9.00;1.83;;;;;;;;;;10074563;29;20940;-89
2022/08/18 13:03:31;;;;;;;7.37;1.57;;;;;;;;;;10072063;29;20999;-89
2022/08/18 13:08:35;;;;;;;8.27;1.80;;;;;;;;;;10070783;29;20561;-89
2022/08/18 13:13:39;;;;;;;7.63;1.93;;;;;;;;;;10073800;29;20968;-90
2022/08/18 13:18:41;;;;;;;6.33;1.60;;;;;;;;;;10072812;29;20421;-89
2022/08/18 13:23:43;;;;;;;6.07;1.40;;;;;;;;;;10071007;29;20434;-90
2022/08/18 13:28:46;;;;;;;7.43;1.60;;;;;;;;;;10067918;29;20437;-89
2022/08/18 13:33:49;;;;;;;8.05;1.40;;;;;;;;;;10092106;29;20408;-89
2022/08/18 13:38:52;;;;;;;4.83;1.03;;;;;;;;;;10100849;29;20436;-89
2022/08/18 13:43:56;;;;;;;5.40;1.30;;;;;;;;;;10073546;29;20846;-89
2022/08/18 13:48:58;;;;;;;5.97;1.20;;;;;;;;;;10071164;29;20518;-89
2022/08/18 13:54:00;;;;;;;6.50;1.03;;;;;;;;;;10072524;29;20426;-89
2022/08/18 13:59:04;;;;;;;5.10;1.10;;;;;;;;;;10071157;29;20531;-89
2022/08/18 14:04:07;;;;;;;2.97;0.73;;;;;;;;;;10071668;29;20761;-90
2022/08/18 14:09:09;;;;;;;3.45;1.13;;;;;;;;;;10069657;29;20928;-89
2022/08/18 14:14:12;;;;;;;3.88;1.10;;;;;;;;;;10073497;29;20425;-89
2022/08/18 14:29:55;;;;;;;2.28;0.70;;;;;;;;;;10065715;29;20412;-89
2022/08/18 14:34:59;;;;;;;2.20;0.90;;;;;;;;;;10070829;29;20426;-89
2022/08/18 14:40:02;;;;;;;4.87;0.90;;;;;;;;;;10077506;29;20459;-89
2022/08/18 14:45:07;;;;;;;2.65;0.80;;;;;;;;;;10078374;29;20434;-89
2022/08/18 14:50:11;;;;;;;4.63;0.90;;;;;;;;;;10077918;29;20518;-90
2022/08/18 14:55:13;;;;;;;3.90;0.93;;;;;;;;;;10072826;29;20459;-89
2022/08/18 15:00:18;;;;;;;3.42;0.90;;;;;;;;;;10076651;29;20908;-89
2022/08/18 15:05:20;;;;;;;3.42;0.88;;;;;;;;;;10075593;29;20435;-90
2022/08/18 15:10:22;;;;;;;4.35;1.00;;;;;;;;;;10058693;29;20415;-90
2022/08/18 15:15:26;;;;;;;4.23;1.10;;;;;;;;;;10078471;29;20426;-90
2022/08/18 15:20:28;;;;;;;3.50;1.00;;;;;;;;;;10073149;29;20511;-89
2022/08/18 15:25:43;;;;;;;4.18;1.15;;;;;;;;;;10074192;29;20547;-89
2022/08/18 15:30:49;;;;;;;3.63;1.05;;;;;;;;;;10071119;29;20419;-90
2022/08/18 15:35:52;;;;;;;3.05;0.82;;;;;;;;;;10074693;29;20498;-89
2022/08/18 15:40:57;;;;;;;3.80;0.90;;;;;;;;;;10078197;29;20479;-90
2022/08/18 15:46:00;;;;;;;6.10;1.30;;;;;;;;;;10073673;29;20433;-89
2022/08/18 15:51:04;;;;;;;3.10;1.00;;;;;;;;;;10075524;29;20451;-90
2022/08/18 15:56:06;;;;;;;2.60;0.90;;;;;;;;;;10075082;29;20934;-89
2022/08/18 16:01:11;;;;;;;5.32;0.90;;;;;;;;;;10073482;29;20545;-89
2022/08/18 16:06:15;;;;;;;3.58;0.90;;;;;;;;;;10073307;29;20525;-89
2022/08/18 16:11:18;;;;;;;4.30;1.07;;;;;;;;;;10067635;29;20453;-89
2022/08/18 16:16:24;;;;;;;4.38;0.80;;;;;;;;;;10072685;29;20467;-89
2022/08/18 16:21:26;;;;;;;4.60;1.00;;;;;;;;;;10075106;29;20461;-89
2022/08/18 16:26:28;;;;;;;3.00;0.80;;;;;;;;;;10071346;29;20431;-89
2022/08/18 16:31:31;;;;;;;3.10;0.97;;;;;;;;;;10072984;29;20979;-89
2022/08/18 16:36:33;;;;;;;3.92;1.13;;;;;;;;;;10072155;29;20446;-90
2022/08/18 16:41:35;;;;;;;5.13;1.05;;;;;;;;;;10079220;29;20426;-89
2022/08/18 16:46:38;;;;;;;3.90;0.70;;;;;;;;;;10072017;29;20515;-89
2022/08/18 16:51:43;;;;;;;3.08;1.15;;;;;;;;;;10072615;29;20422;-89
2022/08/18 16:56:45;;;;;;;3.63;0.70;;;;;;;;;;10066557;29;20798;-89
2022/08/18 17:07:08;;;;;;;3.08;0.75;;;;;;;;;;10067768;29;20458;-89
2022/08/18 17:12:10;;;;;;;4.97;1.00;;;;;;;;;;10077740;29;20525;-90
2022/08/18 17:17:13;;;;;;;3.17;0.80;;;;;;;;;;10070625;29;20755;-90
2022/08/18 17:22:16;;;;;;;3.97;0.90;;;;;;;;;;10065725;29;20421;-90
2022/08/18 17:27:21;;;;;;;4.03;0.80;;;;;;;;;;10075993;29;20503;-90
2022/08/18 17:32:30;;;;;;;5.35;2.65;;;;;;;;;;10071381;29;20475;-90
2022/08/18 17:37:35;;;;;;;3.55;0.82;;;;;;;;;;10070950;29;20772;-90
2022/08/18 17:42:37;;;;;;;4.00;0.80;;;;;;;;;;10071829;29;20924;-90
2022/08/18 17:47:54;;;;;;;5.10;0.90;;;;;;;;;;10070637;29;20436;-90
2022/08/18 17:53:04;;;;;;;4.40;1.20;;;;;;;;;;10064890;29;20431;-90
2022/08/18 17:58:13;;;;;;;6.80;2.20;;;;;;;;;;10072935;29;20982;-90
2022/08/18 18:03:16;;;;;;;4.70;1.37;;;;;;;;;;10066819;29;20422;-90
2022/08/18 18:08:18;;;;;;;3.90;1.20;;;;;;;;;;10067015;29;20519;-90
2022/08/18 18:13:25;;;;;;;4.07;1.10;;;;;;;;;;10076495;29;20475;-89
2022/08/18 18:18:40;;;;;;;4.00;1.00;;;;;;;;;;10078379;29;20446;-88
2022/08/18 18:23:45;;;;;;;4.63;1.35;;;;;;;;;;10081886;29;20505;-89
2022/08/18 18:28:46;;;;;;;3.92;1.17;;;;;;;;;;10076153;29;20905;-89
2022/08/18 18:33:57;;;;;;;5.07;1.55;;;;;;;;;;10077434;29;20515;-89
2022/08/18 18:39:08;;;;;;;5.75;1.20;;;;;;;;;;10079729;29;20451;-90
2022/08/18 18:44:12;;;;;;;3.93;1.67;;;;;;;;;;10074674;29;20458;-90
2022/08/18 18:49:27;;;;;;;5.50;1.30;;;;;;;;;;10082762;29;20597;-90
2022/08/18 18:54:51;;;;;;;5.90;1.35;;;;;;;;;;10085546;29;20430;-90
2022/08/18 19:00:04;;;;;;;6.32;1.30;;;;;;;;;;10075705;29;20450;-89
2022/08/18 19:05:18;;;;;;;6.30;1.50;;;;;;;;;;10075746;29;20451;-89
2022/08/18 19:10:29;;;;;;;5.57;2.45;;;;;;;;;;10072891;29;20771;-89
2022/08/18 19:15:33;;;;;;;6.60;2.08;;;;;;;;;;10072254;29;20515;-89
2022/08/18 19:20:39;;;;;;;4.28;1.73;;;;;;;;;;10075121;29;21039;-89
2022/08/18 19:25:45;;;;;;;3.20;1.57;;;;;;;;;;10072269;29;20817;-88
2022/08/18 19:30:51;;;;;;;5.93;1.80;;;;;;;;;;10071393;29;20502;-88
2022/08/18 19:36:08;;;;;;;5.57;1.80;;;;;;;;;;10074775;29;20450;-88
2022/08/18 19:41:16;;;;;;;5.38;2.28;;;;;;;;;;10075987;29;20458;-88
2022/08/18 19:46:26;;;;;;;9.60;2.33;;;;;;;;;;10071588;29;20475;-88
2022/08/18 19:51:34;;;;;;;4.35;1.50;;;;;;;;;;10078052;29;20501;-88
2022/08/18 19:56:46;;;;;;;3.67;1.60;;;;;;;;;;10074281;29;20430;-88
2022/08/18 20:02:00;;;;;;;6.30;1.90;;;;;;;;;;10070332;29;20888;-87
2022/08/18 20:07:30;;;;;;;4.30;1.63;;;;;;;;;;10075795;29;20435;-88
2022/08/18 20:12:45;;;;;;;4.72;1.75;;;;;;;;;;10073565;29;20411;-87
2022/08/18 20:18:08;;;;;;;4.50;1.30;;;;;;;;;;10069932;29;20419;-88
2022/08/18 20:23:33;;;;;;;4.63;1.20;;;;;;;;;;10073239;29;20417;-88
2022/08/18 20:28:38;;;;;;;3.05;1.33;;;;;;;;;;10071811;29;20446;-88
2022/08/18 20:34:05;;;;;;;2.92;1.60;;;;;;;;;;10071800;29;20416;-88
2022/08/18 20:39:39;;;;;;;5.40;2.17;;;;;;;;;;10073258;29;20978;-88
2022/08/18 20:44:56;;;;;;;3.33;1.43;;;;;;;;;;10072705;29;20516;-88
2022/08/18 20:50:16;;;;;;;4.32;1.10;;;;;;;;;;10069953;29;20441;-88
2022/08/18 20:55:29;;;;;;;4.10;1.00;;;;;;;;;;10069085;29;20457;-88
2022/08/18 21:00:34;;;;;;;4.13;1.20;;;;;;;;;;10072425;29;20506;-88
2022/08/18 21:05:39;;;;;;;5.03;1.00;;;;;;;;;;10071304;29;20939;-88
2022/08/18 21:10:50;;;;;;;4.28;1.13;;;;;;;;;;10071536;29;20518;-88
2022/08/18 21:15:54;;;;;;;3.03;1.23;;;;;;;;;;10069528;29;20446;-88
2022/08/18 21:20:58;;;;;;;4.85;1.10;;;;;;;;;;10069837;29;20498;-88
2022/08/18 21:26:06;;;;;;;1.95;0.80;;;;;;;;;;10071529;29;20943;-88
2022/08/18 21:31:23;;;;;;;4.50;1.13;;;;;;;;;;10074279;29;20458;-87
2022/08/18 21:36:31;;;;;;;5.83;1.30;;;;;;;;;;10071131;29;20510;-88
2022/08/18 21:41:41;;;;;;;4.23;1.53;;;;;;;;;;10070977;29;20466;-88
2022/08/18 21:46:44;;;;;;;3.28;1.17;;;;;;;;;;10070193;29;20437;-88
2022/08/18 21:51:48;;;;;;;2.38;1.13;;;;;;;;;;10066815;29;20407;-87
2022/08/18 21:57:18;;;;;;;4.70;1.50;;;;;;;;;;10069070;29;20431;-88
2022/08/18 22:02:21;;;;;;;3.65;1.45;;;;;;;;;;10067120;29;20506;-88
2022/08/18 22:07:23;;;;;;;6.18;1.52;;;;;;;;;;10070531;29;20431;-88
2022/08/18 22:17:54;;;;;;;6.23;1.90;;;;;;;;;;10066938;29;20603;-88
2022/08/18 22:28:22;;;;;;;6.85;1.50;;;;;;;;;;10025304;29;20437;-88
2022/08/18 22:33:24;;;;;;;7.53;1.80;;;;;;;;;;10069416;29;20508;-88
2022/08/18 22:38:28;;;;;;;7.38;2.00;;;;;;;;;;10069155;29;20839;-88
2022/08/18 22:43:31;;;;;;;6.88;1.70;;;;;;;;;;10072656;29;20966;-88
2022/08/18 22:48:33;;;;;;;6.80;2.20;;;;;;;;;;10068065;29;20480;-88
2022/08/18 22:53:35;;;;;;;4.35;1.75;;;;;;;;;;10069802;29;20434;-88
2022/08/18 22:58:41;;;;;;;6.07;1.80;;;;;;;;;;10072755;29;20420;-88
2022/08/18 23:03:43;;;;;;;7.53;1.90;;;;;;;;;;10094604;29;20424;-88
2022/08/18 23:08:44;;;;;;;6.60;2.40;;;;;;;;;;10076142;29;20437;-88
2022/08/18 23:13:48;;;;;;;5.45;2.05;;;;;;;;;;10073556;29;20502;-87
2022/08/18 23:18:51;;;;;;;4.82;2.03;;;;;;;;;;10075851;29;20500;-88
2022/08/18 23:23:55;;;;;;;4.90;1.90;;;;;;;;;;10075197;29;21001;-88
2022/08/18 23:28:58;;;;;;;9.10;2.28;;;;;;;;;;10077472;29;20440;-88
2022/08/18 23:34:01;;;;;;;6.53;2.10;;;;;;;;;;10076610;29;20502;-88
2022/08/18 23:39:02;;;;;;;5.70;1.70;;;;;;;;;;10077263;29;21083;-92
2022/08/18 23:44:06;;;;;;;6.10;1.70;;;;;;;;;;10078519;29;20508;-90
2022/08/18 23:49:08;;;;;;;7.17;1.57;;;;;;;;;;10076399;29;20521;-90
2022/08/18 23:54:14;;;;;;;5.35;1.63;;;;;;;;;;10076418;29;20422;-90
2022/08/18 23:59:19;;;;;;;6.40;1.60;;;;;;;;;;10075452;29;20518;-90
